Huvudsida
METAR-TAF:

METAR-TAF

Flygplatser :

El Salvador, El Salvador

latitud: 13-26N, longitud: 089-03W, höjd: 25 m

Aktuellt väderrapport

Denna rapport gjordes för 8 timmar och 33 minuter sedan, klockan 14:50 UTC
Vind 4 kt från ost/sydost, varierande mellan nordost och syd/sydost
Temperatur 29°C
Fuktighet 52%
Tryck 1015 hPa
Sikt 10 km eller mer
Inga moln under 1 500 m eller inga cumulonimbus

METAR: MSLP 201450Z 11004KT 050V150 CAVOK 29/18 Q1014 A2997 NOSIG

Tid: 17:23 (23:23 UTC)

Väderprognos

Prognos gäller från 20 kl. 12 UTC till 21 kl. 12 UTC
Vind 5 kt från ost/nordost
Sikt 10 km eller mer
Inga moln under 1 500 m eller inga cumulonimbus
Från 20 kl. 1800 UTC
Vind 10 kt från syd/sydväst
Sikt 10 km eller mer
Få moln på en höjd av 7000 ft
Från 21 kl. 0000 UTC
Vind 3 kt varierande vindriktning
Sikt 10 km eller mer
Inga moln under 1 500 m eller inga cumulonimbus

TAF: MSLP 2012/2112 07005KT CAVOK TX35/1918Z TN21/2012Z FM201800 20010KT 9999 FEW070 FM210000 VRB03KT CAVOK

Aktuella väderrapporter och prognoser från 4000 flygplatser (METAR- och TAF-rapporter).

De tillgängliga stationerna syns som gula och röda prickar på kartan.

För musen över prickarna för att se namnen på stationerna.

Klicka sedan för att få väderrapporter och prognoser.

För att ändra kartan: Klicka på de gröna knapparna med ett svart kors på för att zooma in; den gröna knappen med ett streck på för att zooma ut; eller på de gröna pilarna för angränsande kartor.


METAR-TAF: